Time;durP1;ratioP1;P1;durP2;ratioP2;P2;SDS_P1;SDS_P2;PMS_P1;PMS_P2;Temp;Humidity;BMP_temperature;BMP_pressure;BME280_temperature;BME280_humidity;BME280_pressure;Samples;Min_cycle;Max_cycle;Signal;HPM_P1;HPM_P2
2021/12/20 00:01:09;;;;;;;49.00;34.08;;;19.10;76.90;;;;;;1889964;75;21056;-74
2021/12/20 00:03:40;;;;;;;50.65;35.03;;;19.20;76.70;;;;;;1893092;75;21119;-74
2021/12/20 00:06:11;;;;;;;50.50;35.75;;;19.30;75.90;;;;;;1886356;75;21137;-73
2021/12/20 00:08:42;;;;;;;51.25;34.78;;;19.40;75.50;;;;;;1881428;75;21277;-73
2021/12/20 00:11:13;;;;;;;49.20;35.55;;;19.40;75.40;;;;;;1880638;75;21590;-73
2021/12/20 00:13:44;;;;;;;52.85;36.55;;;19.40;75.30;;;;;;1878467;75;21117;-73
2021/12/20 00:16:15;;;;;;;53.48;35.92;;;19.40;75.00;;;;;;1886899;75;21172;-73
2021/12/20 00:18:45;;;;;;;45.67;32.23;;;19.50;74.60;;;;;;1877309;75;21174;-72
2021/12/20 00:21:16;;;;;;;50.52;34.58;;;19.50;75.10;;;;;;1880618;75;21110;-73
2021/12/20 00:23:47;;;;;;;48.13;34.30;;;19.70;73.90;;;;;;1880104;76;21120;-73
2021/12/20 00:26:18;;;;;;;48.23;32.73;;;19.80;73.30;;;;;;1882341;75;21145;-73
2021/12/20 00:28:49;;;;;;;44.85;31.50;;;19.90;73.00;;;;;;1886066;75;21065;-72
2021/12/20 00:31:20;;;;;;;47.98;33.10;;;20.00;72.80;;;;;;1882119;75;21147;-73
2021/12/20 00:33:52;;;;;;;45.85;31.48;;;20.10;71.70;;;;;;1882821;75;21587;-73
2021/12/20 00:36:24;;;;;;;48.25;32.20;;;20.20;71.30;;;;;;1901530;75;21121;-73
2021/12/20 00:41:29;;;;;;;47.88;31.75;;;20.30;70.60;;;;;;1890736;73;21671;-73
2021/12/20 00:43:59;;;;;;;49.83;30.65;;;20.40;70.50;;;;;;1879229;75;21131;-73
2021/12/20 00:46:32;;;;;;;42.93;31.17;;;20.40;70.60;;;;;;1880571;76;21221;-73
2021/12/20 00:49:03;;;;;;;44.95;29.67;;;20.40;70.30;;;;;;1891134;75;21147;-73
2021/12/20 00:51:33;;;;;;;46.88;29.02;;;20.40;70.10;;;;;;1881396;76;21119;-73
2021/12/20 00:54:04;;;;;;;46.68;30.00;;;20.50;69.80;;;;;;1877013;75;21187;-73
2021/12/20 00:56:35;;;;;;;40.08;28.57;;;20.50;69.40;;;;;;1868555;75;21149;-72
2021/12/20 00:59:07;;;;;;;44.53;29.10;;;20.60;69.50;;;;;;1869268;75;21155;-73
2021/12/20 01:01:39;;;;;;;41.40;27.27;;;20.60;69.00;;;;;;1872610;75;21052;-72
2021/12/20 01:04:10;;;;;;;41.95;28.73;;;20.60;69.00;;;;;;1873361;75;21134;-74
2021/12/20 01:06:41;;;;;;;44.35;27.95;;;20.80;68.60;;;;;;1873278;76;21088;-73
2021/12/20 01:09:12;;;;;;;38.25;26.90;;;20.80;68.00;;;;;;1892637;75;21219;-73
2021/12/20 01:11:49;;;;;;;39.38;27.55;;;20.90;67.60;;;;;;1893844;75;21139;-72
2021/12/20 01:14:22;;;;;;;38.10;26.77;;;21.00;66.80;;;;;;1867555;75;21136;-72
2021/12/20 01:16:47;;;;;;;40.88;25.75;;;21.00;66.70;;;;;;1885822;75;21115;-72
2021/12/20 01:19:19;;;;;;;37.50;26.25;;;21.10;66.20;;;;;;1882650;75;21123;-73
2021/12/20 01:21:51;;;;;;;43.33;25.55;;;21.10;65.60;;;;;;1870758;75;21616;-71
2021/12/20 01:24:22;;;;;;;41.35;25.75;;;21.20;65.40;;;;;;1867862;75;21663;-72
2021/12/20 01:26:53;;;;;;;34.18;24.85;;;21.20;65.10;;;;;;1879819;75;21699;-72
2021/12/20 01:29:24;;;;;;;38.75;26.20;;;21.30;64.70;;;;;;1896758;75;21693;-73
2021/12/20 01:31:55;;;;;;;38.88;27.50;;;21.30;64.50;;;;;;1879324;75;21162;-71
2021/12/20 01:34:26;;;;;;;33.90;24.90;;;21.40;64.20;;;;;;1881739;76;21640;-73
2021/12/20 01:36:57;;;;;;;38.80;25.60;;;21.40;64.30;;;;;;1874270;76;21132;-72
2021/12/20 01:39:28;;;;;;;37.10;24.75;;;21.40;64.00;;;;;;1871636;75;21092;-72
2021/12/20 01:42:00;;;;;;;38.35;26.02;;;21.50;63.80;;;;;;1876783;75;21766;-73
2021/12/20 01:44:31;;;;;;;39.08;25.15;;;21.50;63.60;;;;;;1906004;75;21147;-72
2021/12/20 01:47:02;;;;;;;34.18;21.75;;;21.60;63.20;;;;;;1905834;75;21120;-72
2021/12/20 01:49:41;;;;;;;31.80;22.27;;;21.60;61.70;;;;;;1882202;75;21218;-73
2021/12/20 01:52:13;;;;;;;28.95;20.60;;;21.60;61.50;;;;;;1879329;75;21126;-73
2021/12/20 01:54:39;;;;;;;32.03;20.68;;;21.60;61.50;;;;;;1875285;75;21220;-73
2021/12/20 01:57:10;;;;;;;31.77;21.80;;;21.60;60.70;;;;;;1871792;75;21572;-73
2021/12/20 01:59:42;;;;;;;34.85;20.08;;;21.60;60.70;;;;;;1860342;75;21221;-72
2021/12/20 02:02:13;;;;;;;31.10;20.12;;;21.60;60.90;;;;;;1871071;75;21216;-73
2021/12/20 02:04:48;;;;;;;30.40;19.05;;;21.70;60.10;;;;;;1891089;75;21858;-73
2021/12/20 02:07:35;;;;;;;31.77;20.40;;;21.70;59.90;;;;;;1872698;75;21644;-73
2021/12/20 02:09:49;;;;;;;29.25;19.87;;;21.70;60.20;;;;;;1869730;75;21911;-72
2021/12/20 02:12:20;;;;;;;28.20;19.48;;;21.70;59.50;;;;;;1894299;75;21205;-73
2021/12/20 02:14:51;;;;;;;36.77;20.55;;;21.70;60.10;;;;;;1905896;75;21159;-73
2021/12/20 02:17:22;;;;;;;34.55;20.23;;;21.80;60.40;;;;;;1876048;75;21570;-73
2021/12/20 02:19:53;;;;;;;26.42;19.57;;;21.80;60.30;;;;;;1874426;76;21086;-73
2021/12/20 02:22:24;;;;;;;28.57;20.45;;;21.90;60.50;;;;;;1877401;76;21577;-73
2021/12/20 02:24:54;;;;;;;32.17;20.10;;;21.90;60.40;;;;;;1873891;75;21137;-74
2021/12/20 02:27:25;;;;;;;30.27;20.05;;;22.00;60.70;;;;;;1887040;75;21134;-74
2021/12/20 02:30:13;;;;;;;30.02;20.23;;;22.00;60.30;;;;;;1852905;76;21145;-73
2021/12/20 02:37:34;;;;;;;27.90;21.02;;;22.20;60.00;;;;;;1825130;78;21091;-73
2021/12/20 02:40:05;;;;;;;28.73;19.98;;;22.20;60.00;;;;;;1843764;78;21680;-73
2021/12/20 02:42:40;;;;;;;33.83;21.05;;;22.30;59.30;;;;;;1840980;77;21094;-72
2021/12/20 02:45:14;;;;;;;27.55;20.00;;;22.30;59.60;;;;;;1807522;78;21520;-73
2021/12/20 02:47:45;;;;;;;33.58;20.88;;;22.30;59.80;;;;;;1829600;77;21122;-73
2021/12/20 02:50:16;;;;;;;29.42;20.95;;;22.30;59.90;;;;;;1778090;79;21690;-72
2021/12/20 02:52:47;;;;;;;32.88;21.30;;;22.40;59.90;;;;;;1823007;78;21192;-73
2021/12/20 02:55:19;;;;;;;29.57;21.07;;;22.40;60.00;;;;;;1838680;77;21625;-73
2021/12/20 02:57:49;;;;;;;30.60;21.57;;;22.40;60.20;;;;;;1837929;76;21075;-73
2021/12/20 03:00:23;;;;;;;36.68;23.12;;;22.40;60.20;;;;;;1838682;78;21135;-73
2021/12/20 03:02:54;;;;;;;32.30;22.13;;;22.40;61.00;;;;;;1803971;79;21157;-74
2021/12/20 03:05:25;;;;;;;35.92;22.87;;;22.50;60.50;;;;;;1841830;78;21662;-73
2021/12/20 03:07:57;;;;;;;31.02;22.75;;;22.50;60.60;;;;;;1838055;78;21587;-72
2021/12/20 03:10:30;;;;;;;30.43;21.85;;;22.50;60.10;;;;;;1838764;76;21228;-74
2021/12/20 03:13:00;;;;;;;36.08;23.45;;;22.60;60.50;;;;;;1816996;78;21146;-73
2021/12/20 03:15:31;;;;;;;32.35;23.12;;;22.60;60.50;;;;;;1838264;78;21126;-74
2021/12/20 03:18:03;;;;;;;30.77;23.52;;;22.60;60.60;;;;;;1809514;78;21603;-74
2021/12/20 03:20:34;;;;;;;29.80;23.25;;;22.70;60.50;;;;;;1841639;78;21237;-74
2021/12/20 03:23:04;;;;;;;33.67;22.85;;;22.70;60.60;;;;;;1804453;79;21639;-73
2021/12/20 03:25:35;;;;;;;32.85;22.80;;;22.80;60.60;;;;;;1839875;77;21149;-73
2021/12/20 03:28:06;;;;;;;34.98;24.40;;;22.90;60.80;;;;;;1821492;78;21094;-73
2021/12/20 03:30:36;;;;;;;33.65;23.45;;;22.90;60.30;;;;;;1841425;77;21055;-74
2021/12/20 03:33:07;;;;;;;34.23;23.98;;;23.00;60.40;;;;;;1870325;75;21152;-73
2021/12/20 03:35:38;;;;;;;33.10;23.70;;;23.10;60.90;;;;;;1868827;75;21193;-73
2021/12/20 03:38:09;;;;;;;34.18;23.95;;;23.20;60.60;;;;;;1875777;75;21135;-73
2021/12/20 03:40:40;;;;;;;34.60;23.38;;;23.30;60.00;;;;;;1871330;75;21112;-74
2021/12/20 03:43:13;;;;;;;36.23;24.70;;;23.40;60.00;;;;;;1873218;75;21630;-74
2021/12/20 03:45:44;;;;;;;38.33;24.63;;;23.50;59.80;;;;;;1876351;75;21791;-74
2021/12/20 03:48:16;;;;;;;33.75;24.15;;;23.50;59.70;;;;;;1872089;75;21098;-73
2021/12/20 03:50:47;;;;;;;32.15;24.02;;;23.60;59.70;;;;;;1863560;76;21686;-73
2021/12/20 03:53:17;;;;;;;34.85;23.87;;;23.70;59.30;;;;;;1872999;75;21230;-73
2021/12/20 03:55:49;;;;;;;34.13;24.10;;;23.80;58.80;;;;;;1873439;75;21543;-75
2021/12/20 03:58:19;;;;;;;36.00;24.85;;;23.90;58.90;;;;;;1876263;76;21214;-73
2021/12/20 04:00:51;;;;;;;35.78;24.32;;;23.90;58.90;;;;;;1862482;75;21113;-73
2021/12/20 04:03:24;;;;;;;33.98;23.22;;;24.00;58.50;;;;;;1876248;76;21200;-73
2021/12/20 04:05:55;;;;;;;38.98;23.15;;;24.00;58.50;;;;;;1840131;76;21129;-72
2021/12/20 04:08:27;;;;;;;33.35;24.43;;;24.20;58.00;;;;;;1869048;75;21193;-72
2021/12/20 04:10:58;;;;;;;34.35;23.85;;;24.30;58.30;;;;;;1838413;76;21638;-74
2021/12/20 04:13:32;;;;;;;31.27;23.25;;;24.40;57.90;;;;;;1875595;75;21612;-71
2021/12/20 04:16:10;;;;;;;32.00;23.07;;;24.50;57.80;;;;;;1879714;76;21607;-73
2021/12/20 04:18:42;;;;;;;35.68;23.77;;;24.60;57.30;;;;;;1846342;76;21490;-71
2021/12/20 04:21:13;;;;;;;33.25;23.92;;;;;;;;;;1875105;76;21125;-71
2021/12/20 04:23:43;;;;;;;38.28;23.92;;;24.80;56.60;;;;;;1864592;75;21605;-72
2021/12/20 04:26:15;;;;;;;32.08;23.12;;;24.90;56.30;;;;;;1869452;75;21594;-72
2021/12/20 04:28:46;;;;;;;38.73;24.15;;;25.00;56.80;;;;;;1881230;75;21138;-71
2021/12/20 04:31:16;;;;;;;35.80;25.75;;;25.20;57.60;;;;;;1879744;76;21087;-71
2021/12/20 04:33:49;;;;;;;35.85;24.67;;;25.20;56.60;;;;;;1879527;76;21693;-72
2021/12/20 04:36:19;;;;;;;35.88;24.75;;;25.30;56.30;;;;;;1879650;75;21156;-71
2021/12/20 04:38:50;;;;;;;30.90;24.00;;;25.40;55.80;;;;;;1878471;75;21183;-72
2021/12/20 04:41:21;;;;;;;39.33;25.62;;;25.50;55.90;;;;;;1879244;76;21128;-72
2021/12/20 04:43:52;;;;;;;37.95;25.08;;;25.60;55.60;;;;;;1880371;75;21217;-72
2021/12/20 04:46:22;;;;;;;34.00;26.07;;;25.70;55.30;;;;;;1878806;75;21148;-71
2021/12/20 04:48:53;;;;;;;39.63;25.62;;;25.80;54.70;;;;;;1847049;77;21128;-72
2021/12/20 04:51:24;;;;;;;35.73;26.05;;;25.90;55.00;;;;;;1875429;76;21113;-72
2021/12/20 04:53:55;;;;;;;36.05;25.08;;;25.90;54.60;;;;;;1880286;75;21168;-72
2021/12/20 04:56:26;;;;;;;41.42;25.10;;;26.00;54.50;;;;;;1880163;75;21614;-71
2021/12/20 04:58:57;;;;;;;37.38;24.77;;;26.10;54.40;;;;;;1880381;76;21615;-72
2021/12/20 05:01:28;;;;;;;32.33;23.85;;;26.10;53.70;;;;;;1881200;76;21159;-72
2021/12/20 05:03:59;;;;;;;34.53;23.95;;;26.20;54.30;;;;;;1881064;75;21151;-72
2021/12/20 05:06:32;;;;;;;32.90;24.82;;;26.20;53.80;;;;;;1881830;75;21116;-74
2021/12/20 05:09:05;;;;;;;32.63;24.67;;;26.30;53.20;;;;;;1877566;75;21072;-72
2021/12/20 05:11:35;;;;;;;34.83;24.25;;;26.40;53.50;;;;;;1848887;76;21167;-72
2021/12/20 05:14:06;;;;;;;32.13;22.87;;;26.40;53.20;;;;;;1880185;75;21174;-72
2021/12/20 05:16:37;;;;;;;33.83;23.87;;;26.40;53.60;;;;;;1845738;77;21669;-72
2021/12/20 05:19:07;;;;;;;31.90;24.20;;;26.50;53.50;;;;;;1800519;79;21233;-74
2021/12/20 05:21:38;;;;;;;35.20;23.87;;;26.60;53.40;;;;;;1879657;76;21163;-72
2021/12/20 05:24:09;;;;;;;35.88;23.27;;;26.70;53.10;;;;;;1878781;75;21165;-72
2021/12/20 05:26:40;;;;;;;36.17;24.63;;;26.80;52.60;;;;;;1879370;75;21112;-73
2021/12/20 05:29:10;;;;;;;33.98;23.80;;;26.80;52.60;;;;;;1879948;75;21130;-73
2021/12/20 05:31:41;;;;;;;29.25;21.93;;;26.80;52.10;;;;;;1836400;77;21080;-73
2021/12/20 05:34:14;;;;;;;27.05;21.30;;;26.90;52.20;;;;;;1872872;75;21135;-73
2021/12/20 05:36:45;;;;;;;33.02;22.55;;;26.80;51.30;;;;;;1867596;76;21644;-74
2021/12/20 05:39:16;;;;;;;30.23;22.40;;;26.90;51.90;;;;;;1864774;76;21158;-73
2021/12/20 05:41:47;;;;;;;31.27;24.05;;;26.90;52.20;;;;;;1876252;76;21645;-73
2021/12/20 05:44:18;;;;;;;29.82;22.55;;;27.00;51.30;;;;;;1875014;76;21122;-72
2021/12/20 05:46:49;;;;;;;31.55;22.13;;;27.00;51.10;;;;;;1874354;76;21741;-73
2021/12/20 05:49:20;;;;;;;30.65;23.00;;;27.00;50.60;;;;;;1871192;76;21196;-73
2021/12/20 05:51:53;;;;;;;30.90;22.30;;;26.90;51.00;;;;;;1870436;75;21506;-73
2021/12/20 05:54:24;;;;;;;51.58;22.10;;;26.90;51.30;;;;;;1863086;76;21664;-73
2021/12/20 05:56:54;;;;;;;31.87;21.82;;;26.80;51.30;;;;;;1846083;77;21658;-74
2021/12/20 05:59:25;;;;;;;28.15;21.42;;;26.80;51.40;;;;;;1866916;76;21560;-73
2021/12/20 06:01:56;;;;;;;31.30;21.30;;;26.80;51.50;;;;;;1867429;76;21186;-73
2021/12/20 06:04:27;;;;;;;31.75;22.82;;;26.90;51.20;;;;;;1864091;76;21635;-73
2021/12/20 06:06:58;;;;;;;33.33;22.40;;;26.90;51.20;;;;;;1869076;76;21218;-73
2021/12/20 06:09:29;;;;;;;29.10;21.60;;;27.00;51.20;;;;;;1832864;77;21171;-73
2021/12/20 06:12:00;;;;;;;27.37;19.70;;;27.00;50.90;;;;;;1825858;78;21157;-73
2021/12/20 06:14:33;;;;;;;26.90;20.35;;;27.00;50.30;;;;;;1875303;76;21648;-73
2021/12/20 06:17:04;;;;;;;28.20;19.77;;;27.00;50.40;;;;;;1871619;76;21627;-73
2021/12/20 06:19:35;;;;;;;26.80;20.43;;;27.00;50.60;;;;;;1846303;76;21082;-73
2021/12/20 06:22:10;;;;;;;27.22;19.70;;;27.00;50.50;;;;;;1870445;76;21212;-73
2021/12/20 06:24:39;;;;;;;25.90;19.52;;;27.00;50.70;;;;;;1869223;76;21201;-73
2021/12/20 06:27:10;;;;;;;29.80;20.45;;;27.10;50.80;;;;;;1870464;76;21151;-73
2021/12/20 06:29:41;;;;;;;25.57;20.35;;;27.20;50.70;;;;;;1865509;76;21092;-73
2021/12/20 06:32:12;;;;;;;25.62;19.57;;;27.20;50.90;;;;;;1867567;76;21158;-72
2021/12/20 06:34:43;;;;;;;25.45;18.62;;;27.10;50.50;;;;;;1822491;77;21653;-72
2021/12/20 06:37:14;;;;;;;27.02;19.60;;;27.10;50.60;;;;;;1870829;76;21222;-73
2021/12/20 06:39:45;;;;;;;25.97;19.35;;;27.10;51.00;;;;;;1867782;76;21136;-73
2021/12/20 06:42:16;;;;;;;22.80;18.60;;;27.10;51.00;;;;;;1865779;76;21186;-73
2021/12/20 06:44:47;;;;;;;21.02;17.65;;;27.20;51.00;;;;;;1871308;76;21173;-73
2021/12/20 06:47:19;;;;;;;28.30;19.50;;;27.30;50.60;;;;;;1865662;76;21140;-74
2021/12/20 06:49:50;;;;;;;23.70;17.80;;;27.30;50.00;;;;;;1870057;76;21532;-74
2021/12/20 06:52:21;;;;;;;24.30;17.98;;;27.30;50.10;;;;;;1873699;76;21124;-73
2021/12/20 06:54:52;;;;;;;26.68;18.70;;;27.30;50.50;;;;;;1847666;77;21232;-73
2021/12/20 06:57:22;;;;;;;27.52;18.42;;;27.30;50.10;;;;;;1882514;75;21073;-73
2021/12/20 06:59:53;;;;;;;21.82;17.67;;;27.30;50.20;;;;;;1823352;78;21144;-73
2021/12/20 07:02:24;;;;;;;24.52;17.95;;;27.30;50.70;;;;;;1863837;76;21147;-74
2021/12/20 07:04:55;;;;;;;23.50;18.73;;;27.30;50.50;;;;;;1868645;76;21657;-73
2021/12/20 07:07:27;;;;;;;24.65;17.95;;;27.40;50.40;;;;;;1856045;76;21085;-73
2021/12/20 07:09:58;;;;;;;22.52;16.82;;;27.40;50.30;;;;;;1850164;76;21587;-73
2021/12/20 07:12:29;;;;;;;24.00;17.42;;;27.40;50.50;;;;;;1865511;76;21147;-74
2021/12/20 07:15:00;;;;;;;20.50;17.27;;;27.40;50.10;;;;;;1871217;76;21233;-75
2021/12/20 07:17:31;;;;;;;25.23;17.55;;;27.40;50.30;;;;;;1822922;78;21655;-75
2021/12/20 07:20:02;;;;;;;23.62;17.30;;;27.50;50.30;;;;;;1871601;76;21248;-74
2021/12/20 07:22:34;;;;;;;22.67;17.70;;;27.60;49.80;;;;;;1871482;76;21659;-73
2021/12/20 07:25:05;;;;;;;25.10;18.05;;;27.50;50.10;;;;;;1869758;76;21116;-73
2021/12/20 07:27:36;;;;;;;22.00;16.50;;;27.50;50.00;;;;;;1869647;76;21128;-74
2021/12/20 07:30:08;;;;;;;24.47;16.05;;;27.50;49.70;;;;;;1868579;76;21618;-73
2021/12/20 07:32:39;;;;;;;22.37;16.12;;;27.40;49.80;;;;;;1821085;78;21167;-74
2021/12/20 07:35:11;;;;;;;25.10;16.23;;;27.30;50.40;;;;;;1860906;76;21148;-74
2021/12/20 07:37:42;;;;;;;21.07;16.23;;;27.30;50.40;;;;;;1816649;79;21678;-74
2021/12/20 07:40:14;;;;;;;18.82;14.53;;;27.40;50.90;;;;;;1863203;76;21132;-73
2021/12/20 07:42:45;;;;;;;19.02;14.47;;;27.30;50.70;;;;;;1864024;76;21161;-74
2021/12/20 07:45:16;;;;;;;21.10;16.15;;;27.40;50.70;;;;;;1863582;75;21112;-73
2021/12/20 07:47:50;;;;;;;21.70;17.17;;;27.40;50.70;;;;;;1856895;76;21281;-74
2021/12/20 07:50:22;;;;;;;22.07;16.48;;;27.40;50.80;;;;;;1827733;78;21581;-74
2021/12/20 07:52:53;;;;;;;19.57;15.25;;;27.50;50.90;;;;;;1871086;76;21183;-74
2021/12/20 07:55:24;;;;;;;19.90;15.08;;;27.40;50.90;;;;;;1873980;76;21630;-73
2021/12/20 07:57:55;;;;;;;22.87;15.93;;;27.40;51.00;;;;;;1880854;76;21715;-74
2021/12/20 08:00:26;;;;;;;23.47;16.90;;;27.40;50.90;;;;;;1858108;76;21816;-75
2021/12/20 08:02:57;;;;;;;25.72;18.07;;;27.50;50.80;;;;;;1868653;76;21107;-73
2021/12/20 08:05:29;;;;;;;25.08;17.05;;;27.40;50.70;;;;;;1859227;76;21104;-73
2021/12/20 08:08:00;;;;;;;29.63;18.73;;;27.50;50.80;;;;;;1871476;76;21142;-73
2021/12/20 08:10:31;;;;;;;25.97;17.77;;;27.40;51.00;;;;;;1873128;76;21579;-74
2021/12/20 08:13:02;;;;;;;23.57;18.55;;;27.40;51.10;;;;;;1868514;75;21159;-73
2021/12/20 08:15:33;;;;;;;22.60;17.95;;;27.30;51.00;;;;;;1867354;75;21079;-73
2021/12/20 08:18:04;;;;;;;19.95;15.83;;;27.40;51.30;;;;;;1862652;76;21156;-72
2021/12/20 08:20:35;;;;;;;23.57;18.07;;;27.30;51.10;;;;;;1867854;76;21124;-72
2021/12/20 08:23:06;;;;;;;23.22;18.10;;;27.30;51.20;;;;;;1870575;76;21112;-72
2021/12/20 08:25:39;;;;;;;26.42;18.00;;;27.30;51.00;;;;;;1870275;76;21133;-72
2021/12/20 08:28:09;;;;;;;26.45;18.77;;;27.30;51.10;;;;;;1857727;76;21140;-72
2021/12/20 08:30:40;;;;;;;22.22;17.15;;;27.20;52.30;;;;;;1865052;76;22320;-72
2021/12/20 08:33:12;;;;;;;23.62;17.85;;;27.20;51.70;;;;;;1844026;77;21273;-72
2021/12/20 08:35:43;;;;;;;21.07;16.95;;;27.20;51.70;;;;;;1879054;76;22224;-72
2021/12/20 08:38:14;;;;;;;23.55;17.32;;;27.20;51.50;;;;;;1881792;76;21610;-73
2021/12/20 08:40:45;;;;;;;23.00;16.52;;;27.20;52.10;;;;;;1868457;76;21129;-72
2021/12/20 08:43:17;;;;;;;21.23;16.32;;;27.20;52.10;;;;;;1867082;77;21843;-72
2021/12/20 08:45:48;;;;;;;23.62;18.20;;;27.20;52.10;;;;;;1874755;76;21143;-72
2021/12/20 08:48:19;;;;;;;21.95;17.12;;;27.10;51.80;;;;;;1878142;76;21144;-73
2021/12/20 08:50:50;;;;;;;23.60;17.32;;;27.20;51.80;;;;;;1872042;76;21144;-73
2021/12/20 08:53:21;;;;;;;20.32;16.37;;;27.10;51.80;;;;;;1862400;77;21418;-73
2021/12/20 08:55:52;;;;;;;22.45;17.05;;;27.10;51.90;;;;;;1872921;76;21088;-72
2021/12/20 08:58:24;;;;;;;24.05;19.12;;;27.10;51.70;;;;;;1846522;78;21154;-73
2021/12/20 09:00:56;;;;;;;24.45;19.27;;;27.10;51.80;;;;;;1872960;76;21113;-72
2021/12/20 09:03:28;;;;;;;22.62;18.15;;;27.00;52.30;;;;;;1836780;78;21084;-74
2021/12/20 09:05:59;;;;;;;24.18;16.95;;;27.00;52.40;;;;;;1874330;76;21171;-74
2021/12/20 09:08:34;;;;;;;19.25;16.82;;;27.00;52.50;;;;;;1877828;76;21150;-73
2021/12/20 09:11:05;;;;;;;21.93;17.15;;;27.00;52.30;;;;;;1873755;76;21476;-75
2021/12/20 09:13:37;;;;;;;23.15;18.10;;;27.00;52.40;;;;;;1878584;74;21158;-74
2021/12/20 09:16:08;;;;;;;24.32;18.02;;;27.00;52.80;;;;;;1878822;76;21490;-74
2021/12/20 09:18:38;;;;;;;21.42;16.48;;;27.00;52.80;;;;;;1878999;76;21178;-73
2021/12/20 09:21:10;;;;;;;20.52;15.90;;;27.00;52.70;;;;;;1875990;76;21149;-73
2021/12/20 09:23:41;;;;;;;21.68;17.00;;;27.00;52.50;;;;;;1871512;76;21115;-73
2021/12/20 09:26:13;;;;;;;22.80;17.35;;;27.00;52.50;;;;;;1876676;76;21209;-74
2021/12/20 09:28:44;;;;;;;24.10;17.30;;;26.90;52.70;;;;;;1877659;76;21174;-73
2021/12/20 09:31:15;;;;;;;21.37;16.17;;;26.90;52.60;;;;;;1877819;76;21138;-73
2021/12/20 09:33:46;;;;;;;19.40;15.40;;;26.90;52.80;;;;;;1870422;76;21669;-73
2021/12/20 09:36:17;;;;;;;19.67;15.75;;;26.90;52.80;;;;;;1837284;78;21207;-74
2021/12/20 09:38:48;;;;;;;21.52;15.83;;;26.90;53.00;;;;;;1877724;76;21128;-74
2021/12/20 09:41:59;;;;;;;26.68;18.25;;;26.80;52.80;;;;;;1876609;76;21183;-74
2021/12/20 09:43:58;;;;;;;32.73;21.37;;;26.80;52.80;;;;;;1873673;75;21071;-79
2021/12/20 09:46:31;;;;;;;29.32;19.12;;;26.80;53.20;;;;;;1875412;76;21110;-77
2021/12/20 09:49:02;;;;;;;22.15;17.17;;;26.80;53.10;;;;;;1878050;76;21158;-78
2021/12/20 09:51:37;;;;;;;20.97;16.20;;;26.80;53.20;;;;;;1878886;76;21143;-78
2021/12/20 09:54:07;;;;;;;28.80;16.97;;;26.70;53.40;;;;;;1878135;76;21147;-78
2021/12/20 09:56:40;;;;;;;25.55;18.48;;;26.70;53.50;;;;;;1846355;77;21612;-78
2021/12/20 09:59:14;;;;;;;28.10;18.37;;;26.70;53.50;;;;;;1868285;76;21088;-77
2021/12/20 10:01:47;;;;;;;23.25;18.17;;;26.60;53.20;;;;;;1866690;76;21643;-76
2021/12/20 10:04:20;;;;;;;30.27;18.07;;;26.50;53.30;;;;;;1876993;76;21092;-77
2021/12/20 10:06:54;;;;;;;39.48;21.97;;;26.50;53.80;;;;;;1876285;76;21148;-77
2021/12/20 10:09:28;;;;;;;32.45;19.30;;;26.50;54.00;;;;;;1877793;76;21156;-77
2021/12/20 10:11:59;;;;;;;22.05;16.52;;;26.40;53.70;;;;;;1878031;76;21125;-78
2021/12/20 10:14:30;;;;;;;29.35;19.82;;;26.40;54.10;;;;;;1835808;78;21161;-76
2021/12/20 10:17:05;;;;;;;25.32;17.37;;;26.30;54.30;;;;;;1873336;76;21151;-76
2021/12/20 10:19:36;;;;;;;23.62;17.62;;;26.30;54.50;;;;;;1842569;77;21092;-79
2021/12/20 10:22:11;;;;;;;24.80;18.12;;;26.20;54.50;;;;;;1874712;76;21544;-76
2021/12/20 10:24:44;;;;;;;24.82;18.17;;;26.10;55.00;;;;;;1878178;76;21088;-78
2021/12/20 10:27:23;;;;;;;28.87;17.57;;;26.10;55.10;;;;;;1817998;78;21093;-78
2021/12/20 10:29:54;;;;;;;28.83;18.80;;;26.00;55.20;;;;;;1838833;77;21193;-78
2021/12/20 10:32:28;;;;;;;30.85;17.80;;;26.00;55.40;;;;;;1878038;76;21649;-77
2021/12/20 10:34:59;;;;;;;26.65;18.30;;;26.00;55.70;;;;;;1875406;76;21214;-77
2021/12/20 10:37:32;;;;;;;27.45;18.75;;;25.90;55.80;;;;;;1874000;76;21155;-77
2021/12/20 10:40:04;;;;;;;29.72;19.77;;;25.90;55.80;;;;;;1833471;76;21748;-78
2021/12/20 10:42:43;;;;;;;26.10;19.45;;;25.90;56.00;;;;;;1834224;78;21199;-82
2021/12/20 10:45:17;;;;;;;25.65;18.85;;;25.80;56.20;;;;;;1836788;76;21183;-78
2021/12/20 10:47:51;;;;;;;26.97;19.65;;;25.80;56.30;;;;;;1814648;76;22012;-77
2021/12/20 10:50:27;;;;;;;27.02;18.50;;;25.80;56.40;;;;;;1825367;76;21237;-78
2021/12/20 10:53:07;;;;;;;28.83;18.98;;;25.70;56.50;;;;;;1840314;76;21107;-77
2021/12/20 10:55:40;;;;;;;27.93;19.07;;;25.70;56.60;;;;;;1831950;76;21178;-76
2021/12/20 10:58:15;;;;;;;26.05;18.57;;;25.60;56.60;;;;;;1836247;76;21133;-78
2021/12/20 11:00:51;;;;;;;26.30;19.43;;;25.50;56.60;;;;;;1793249;78;21672;-77
2021/12/20 11:03:27;;;;;;;29.23;19.92;;;25.50;56.80;;;;;;1818561;77;21586;-78
2021/12/20 11:11:11;;;;;;;31.07;20.12;;;25.50;57.20;;;;;;1829816;76;21571;-80
2021/12/20 11:13:42;;;;;;;28.27;19.32;;;25.40;57.90;;;;;;1831205;77;21571;-77
2021/12/20 11:16:16;;;;;;;33.48;20.88;;;25.30;57.70;;;;;;1820932;78;21086;-78
2021/12/20 11:18:47;;;;;;;26.48;19.92;;;25.30;57.80;;;;;;1831266;76;21192;-78
2021/12/20 11:21:21;;;;;;;26.97;19.65;;;25.30;57.90;;;;;;1831418;77;21115;-77
2021/12/20 11:23:52;;;;;;;34.78;20.15;;;25.30;57.80;;;;;;1820764;78;21603;-79
2021/12/20 11:26:24;;;;;;;33.45;19.42;;;25.20;57.80;;;;;;1803642;77;21122;-79
2021/12/20 11:28:58;;;;;;;38.17;21.17;;;25.20;57.90;;;;;;1817054;76;21628;-78
2021/12/20 11:31:37;;;;;;;31.35;20.27;;;25.20;58.00;;;;;;1832362;76;21635;-77
2021/12/20 11:34:09;;;;;;;39.18;19.17;;;25.20;58.30;;;;;;1827630;76;21704;-77
2021/12/20 11:36:41;;;;;;;33.60;21.42;;;25.20;58.10;;;;;;1846194;76;21191;-78
2021/12/20 11:39:15;;;;;;;29.70;20.80;;;25.20;58.30;;;;;;1838817;76;21565;-78
2021/12/20 11:41:51;;;;;;;33.95;22.17;;;25.20;58.30;;;;;;1825119;78;21101;-78
2021/12/20 11:44:23;;;;;;;41.02;21.40;;;25.20;58.20;;;;;;1861648;76;21143;-80
2021/12/20 11:46:57;;;;;;;38.50;21.15;;;25.20;58.10;;;;;;1821060;77;21105;-79
2021/12/20 11:49:29;;;;;;;39.78;21.20;;;25.20;58.10;;;;;;1846322;76;21648;-78
2021/12/20 11:52:02;;;;;;;39.15;20.02;;;25.30;58.10;;;;;;1864010;76;21121;-77
2021/12/20 11:54:35;;;;;;;29.23;19.60;;;25.30;58.60;;;;;;1860490;75;21122;-78
2021/12/20 11:57:08;;;;;;;28.87;20.25;;;25.20;58.50;;;;;;1826506;78;21126;-77
2021/12/20 11:59:42;;;;;;;30.32;20.95;;;25.20;58.60;;;;;;1871895;76;21128;-78
2021/12/20 12:02:15;;;;;;;27.40;19.25;;;25.10;58.70;;;;;;1867814;76;21603;-78
2021/12/20 12:04:48;;;;;;;32.73;19.75;;;25.10;59.30;;;;;;1868490;76;21159;-78
2021/12/20 12:07:22;;;;;;;28.07;20.05;;;25.00;59.40;;;;;;1827495;77;21180;-77
2021/12/20 12:09:55;;;;;;;29.72;19.00;;;25.00;59.70;;;;;;1869409;75;21147;-79
2021/12/20 12:12:27;;;;;;;29.87;19.45;;;24.90;59.30;;;;;;1826768;77;21256;-78
2021/12/20 12:15:07;;;;;;;34.90;19.20;;;24.90;60.50;;;;;;1865179;76;21588;-78
2021/12/20 12:17:38;;;;;;;32.42;20.68;;;24.80;59.80;;;;;;1856270;76;21155;-78
2021/12/20 12:20:10;;;;;;;35.70;22.77;;;24.80;60.00;;;;;;1859792;76;21726;-78
2021/12/20 12:22:43;;;;;;;38.78;23.22;;;24.80;59.90;;;;;;1853629;76;21185;-78
2021/12/20 12:25:17;;;;;;;43.00;25.02;;;24.80;60.00;;;;;;1861008;76;21631;-78
2021/12/20 12:27:51;;;;;;;44.55;32.70;;;24.80;60.20;;;;;;1863845;76;21731;-78
2021/12/20 12:30:24;;;;;;;40.00;23.42;;;24.80;60.50;;;;;;1860523;76;21133;-78
2021/12/20 12:32:58;;;;;;;35.98;23.05;;;24.80;60.90;;;;;;1856124;76;21143;-78
2021/12/20 12:35:31;;;;;;;32.85;22.52;;;24.80;61.10;;;;;;1868213;75;21572;-78
2021/12/20 12:38:04;;;;;;;31.07;22.20;;;24.80;61.50;;;;;;1864269;76;21106;-78
2021/12/20 12:40:35;;;;;;;37.58;23.12;;;24.70;61.80;;;;;;1869584;76;21183;-79
2021/12/20 12:43:06;;;;;;;35.30;23.00;;;24.60;61.80;;;;;;1874399;76;21209;-79
2021/12/20 12:45:39;;;;;;;35.75;23.70;;;24.60;61.90;;;;;;1880487;76;21282;-80
2021/12/20 12:48:13;;;;;;;36.55;22.75;;;24.60;62.20;;;;;;1878806;76;21148;-77
2021/12/20 12:50:48;;;;;;;33.38;24.10;;;24.50;62.00;;;;;;1847456;76;21230;-79
2021/12/20 12:53:32;;;;;;;40.70;23.85;;;24.50;62.30;;;;;;1873973;76;21556;-78
2021/12/20 12:56:00;;;;;;;44.27;24.23;;;24.50;62.80;;;;;;1840361;78;21197;-79
2021/12/20 12:58:33;;;;;;;36.23;24.50;;;24.50;63.00;;;;;;1869286;76;21144;-79
2021/12/20 13:01:04;;;;;;;34.38;25.10;;;24.50;63.50;;;;;;1880640;76;21111;-78
2021/12/20 13:03:43;;;;;;;45.17;30.70;;;24.40;63.70;;;;;;1878608;76;21139;-80